createdAt,value
2019-05-14T00:00:43.347Z,2.33
2019-05-14T00:03:12.538Z,1.90
2019-05-14T00:05:42.454Z,1.43
2019-05-14T00:08:11.467Z,1.70
2019-05-14T00:10:41.233Z,1.50
2019-05-14T00:13:11.858Z,1.67
2019-05-14T00:15:38.710Z,1.20
2019-05-14T00:18:07.918Z,1.77
2019-05-14T00:20:37.103Z,1.50
2019-05-14T00:23:06.301Z,1.80
2019-05-14T00:25:35.473Z,1.73
2019-05-14T00:28:04.702Z,1.30
2019-05-14T00:30:33.877Z,2.03
2019-05-14T00:33:03.065Z,1.30
2019-05-14T00:35:35.571Z,1.70
2019-05-14T00:38:01.516Z,1.23
2019-05-14T00:40:31.457Z,1.17
2019-05-14T00:43:03.486Z,1.37
2019-05-14T00:45:33.232Z,1.03
2019-05-14T00:48:02.423Z,1.80
2019-05-14T00:50:31.849Z,1.60
2019-05-14T00:53:01.908Z,0.90
2019-05-14T00:55:31.663Z,1.07
2019-05-14T00:57:59.356Z,1.07
2019-05-14T01:00:28.601Z,1.63
2019-05-14T01:02:57.810Z,1.40
2019-05-14T01:05:26.965Z,1.43
2019-05-14T01:07:56.145Z,1.53
2019-05-14T01:10:25.367Z,1.70
2019-05-14T01:12:54.574Z,1.47
2019-05-14T01:15:23.750Z,1.80
2019-05-14T01:17:52.951Z,1.43
2019-05-14T01:20:22.117Z,1.10
2019-05-14T01:22:51.719Z,1.00
2019-05-14T01:25:23.504Z,1.00
2019-05-14T01:27:51.646Z,1.53
2019-05-14T01:30:21.259Z,0.90
2019-05-14T01:32:51.215Z,1.10
2019-05-14T01:35:18.572Z,1.30
2019-05-14T01:37:47.832Z,1.00
2019-05-14T01:40:17.100Z,1.30
2019-05-14T01:42:46.365Z,1.20
2019-05-14T01:45:25.057Z,1.40
2019-05-14T01:47:44.720Z,1.30
2019-05-14T01:50:13.939Z,1.47
2019-05-14T01:52:43.117Z,1.13
2019-05-14T01:55:12.344Z,0.93
2019-05-14T01:57:42.496Z,1.33
2019-05-14T02:00:11.455Z,1.10
2019-05-14T02:02:41.738Z,0.90
2019-05-14T02:05:09.223Z,1.60
2019-05-14T02:07:38.518Z,1.27
2019-05-14T02:10:07.720Z,0.93
2019-05-14T02:12:36.976Z,0.97
2019-05-14T02:15:06.250Z,1.50
2019-05-14T02:17:35.475Z,1.40
2019-05-14T02:20:04.696Z,0.90
2019-05-14T02:22:33.907Z,1.27
2019-05-14T02:25:03.126Z,0.90
2019-05-14T02:27:34.898Z,1.20
2019-05-14T02:30:02.203Z,1.23
2019-05-14T02:32:30.848Z,1.60
2019-05-14T02:35:00.044Z,1.30
2019-05-14T02:37:30.060Z,1.30
2019-05-14T02:39:59.693Z,1.17
2019-05-14T02:42:29.018Z,1.47
2019-05-14T02:44:59.291Z,1.47
2019-05-14T02:47:26.224Z,1.27
2019-05-14T02:49:58.762Z,1.80
2019-05-14T02:52:24.647Z,1.60
2019-05-14T02:54:53.809Z,1.17
2019-05-14T02:57:23.012Z,1.30
2019-05-14T02:59:52.307Z,1.73
2019-05-14T03:02:21.491Z,1.47
2019-05-14T03:04:50.719Z,1.60
2019-05-14T03:07:19.929Z,1.60
2019-05-14T03:09:50.311Z,1.67
2019-05-14T03:12:19.398Z,1.13
2019-05-14T03:14:49.827Z,1.50
2019-05-14T03:17:19.883Z,1.97
2019-05-14T03:19:49.319Z,1.23
2019-05-14T03:22:15.261Z,1.80
2019-05-14T03:24:44.488Z,2.47
2019-05-14T03:27:13.700Z,1.27
2019-05-14T03:29:42.875Z,1.67
2019-05-14T03:32:13.699Z,1.47
2019-05-14T03:34:43.745Z,1.50
2019-05-14T03:37:13.112Z,1.53
2019-05-14T03:39:39.877Z,1.60
2019-05-14T03:42:09.634Z,1.47
2019-05-14T03:44:40.009Z,1.40
2019-05-14T03:47:10.365Z,1.13
2019-05-14T03:49:39.398Z,0.80
2019-05-14T03:52:09.312Z,1.60
2019-05-14T03:54:35.031Z,1.37
2019-05-14T03:57:04.257Z,1.10
2019-05-14T03:59:33.698Z,1.07
2019-05-14T04:02:02.879Z,0.90
2019-05-14T04:04:32.057Z,1.10
2019-05-14T04:07:02.117Z,1.33
2019-05-14T04:09:31.342Z,0.80
2019-05-14T04:12:00.519Z,1.10
2019-05-14T04:14:29.977Z,0.80
2019-05-14T04:17:14.774Z,0.80
2019-05-14T04:19:39.422Z,0.50
2019-05-14T04:22:10.078Z,1.03
2019-05-14T04:24:41.034Z,1.13
2019-05-14T04:27:12.528Z,0.80
2019-05-14T04:29:39.555Z,0.83
2019-05-14T04:32:09.182Z,1.20
2019-05-14T04:34:38.722Z,0.70
2019-05-14T04:37:04.939Z,0.80
2019-05-14T04:39:34.285Z,0.90
2019-05-14T04:42:03.715Z,0.80
2019-05-14T04:44:33.098Z,0.77
2019-05-14T04:47:21.414Z,0.70
2019-05-14T04:49:32.951Z,0.97
2019-05-14T04:52:02.148Z,0.93
2019-05-14T04:54:31.335Z,0.80
2019-05-14T04:57:00.544Z,0.77
2019-05-14T04:59:30.217Z,0.50
2019-05-14T05:02:00.033Z,0.70
2019-05-14T05:04:29.929Z,0.87
2019-05-14T05:06:59.241Z,0.63
2019-05-14T05:09:29.365Z,0.80
2019-05-14T05:11:55.862Z,1.13
2019-05-14T05:14:25.081Z,0.80
2019-05-14T05:16:54.312Z,0.63
2019-05-14T05:19:23.494Z,0.50
2019-05-14T05:21:52.731Z,0.77
2019-05-14T05:24:22.504Z,0.43
2019-05-14T05:26:51.691Z,0.70
2019-05-14T05:29:20.901Z,1.37
2019-05-14T05:31:50.153Z,0.80
2019-05-14T05:34:19.427Z,1.10
2019-05-14T05:36:48.701Z,0.80
2019-05-14T05:39:18.948Z,1.00
2019-05-14T05:41:49.258Z,1.07
2019-05-14T05:44:18.628Z,0.60
2019-05-14T05:46:49.175Z,0.57
2019-05-14T05:49:18.509Z,0.70
2019-05-14T05:51:45.166Z,1.20
2019-05-14T05:54:14.363Z,0.97
2019-05-14T05:56:43.593Z,1.17
2019-05-14T05:59:12.829Z,0.90
2019-05-14T06:01:46.302Z,0.60
2019-05-14T06:04:11.494Z,0.90
2019-05-14T06:06:40.725Z,0.97
2019-05-14T06:09:09.943Z,0.90
2019-05-14T06:11:39.097Z,0.70
2019-05-14T06:14:08.463Z,0.87
2019-05-14T06:16:38.423Z,1.00
2019-05-14T06:19:08.303Z,0.67
2019-05-14T06:21:36.137Z,1.00
2019-05-14T06:24:05.356Z,0.72
2019-05-14T06:26:34.627Z,0.80
2019-05-14T06:29:03.820Z,1.00
2019-05-14T06:31:33.106Z,0.90
2019-05-14T06:34:02.398Z,1.07
2019-05-14T06:36:31.651Z,0.95
2019-05-14T06:39:00.850Z,0.90
2019-05-14T06:41:30.061Z,0.88
2019-05-14T06:43:59.304Z,1.02
2019-05-14T06:46:28.548Z,1.52
2019-05-14T06:48:59.025Z,0.93
2019-05-14T06:51:28.763Z,1.10
2019-05-14T06:53:58.623Z,0.80
2019-05-14T06:56:28.065Z,0.90
2019-05-14T06:58:54.678Z,1.37
2019-05-14T07:02:28.544Z,1.15
2019-05-14T07:04:58.805Z,0.80
2019-05-14T07:07:25.691Z,0.98
2019-05-14T07:09:54.925Z,1.10
2019-05-14T07:12:24.123Z,1.60
2019-05-14T07:14:53.351Z,1.22
2019-05-14T07:17:22.551Z,1.10
2019-05-14T07:19:51.812Z,0.80
2019-05-14T07:22:21.005Z,0.65
2019-05-14T07:24:50.210Z,0.85
2019-05-14T07:27:19.464Z,1.30
2019-05-14T07:29:49.380Z,1.07
2019-05-14T07:32:19.103Z,1.17
2019-05-14T07:34:48.234Z,0.75
2019-05-14T07:37:18.098Z,0.80
2019-05-14T07:39:45.789Z,1.60
2019-05-14T07:42:15.010Z,0.90
2019-05-14T07:44:44.565Z,0.98
2019-05-14T07:47:13.826Z,1.32
2019-05-14T07:49:43.080Z,0.60
2019-05-14T07:52:12.514Z,1.07
2019-05-14T07:54:41.726Z,1.07
2019-05-14T07:57:10.942Z,1.00
2019-05-14T07:59:40.137Z,1.10
2019-05-14T08:02:09.536Z,1.00
2019-05-14T08:04:38.664Z,1.12
2019-05-14T08:07:08.994Z,1.05
2019-05-14T08:09:38.974Z,0.80
2019-05-14T08:12:09.049Z,1.15
2019-05-14T08:14:46.526Z,1.10
2019-05-14T08:17:05.490Z,0.90
2019-05-14T08:19:34.833Z,1.12
2019-05-14T08:22:04.117Z,1.15
2019-05-14T08:24:33.383Z,0.80
2019-05-14T08:27:02.673Z,1.07
2019-05-14T08:29:31.920Z,0.72
2019-05-14T08:32:01.117Z,0.90
2019-05-14T08:34:32.295Z,0.90
2019-05-14T08:37:03.905Z,1.05
2019-05-14T08:39:28.863Z,1.25
2019-05-14T08:42:03.073Z,0.95
2019-05-14T08:44:29.313Z,0.88
2019-05-14T08:46:58.969Z,1.10
2019-05-14T08:49:39.239Z,1.30
2019-05-14T08:51:55.101Z,1.35
2019-05-14T08:54:24.317Z,1.02
2019-05-14T08:56:53.526Z,0.93
2019-05-14T08:59:22.765Z,1.20
2019-05-14T09:02:05.218Z,1.07
2019-05-14T09:04:22.597Z,0.98
2019-05-14T09:06:50.575Z,1.10
2019-05-14T09:09:22.151Z,1.00
2019-05-14T09:11:50.409Z,0.93
2019-05-14T09:14:18.813Z,1.20
2019-05-14T09:16:50.922Z,1.62
2019-05-14T09:19:19.105Z,0.68
2019-05-14T09:21:46.404Z,1.27
2019-05-14T09:24:18.077Z,1.27
2019-05-14T09:26:45.191Z,0.80
2019-05-14T09:29:25.031Z,0.90
2019-05-14T09:31:43.686Z,1.10
2019-05-14T09:34:12.915Z,1.77
2019-05-14T09:36:42.152Z,0.72
2019-05-14T09:39:12.248Z,0.90
2019-05-14T09:41:40.607Z,1.32
2019-05-14T09:44:09.790Z,1.12
2019-05-14T09:46:39.074Z,0.90
2019-05-14T09:49:08.277Z,0.90
2019-05-14T09:51:38.370Z,0.80
2019-05-14T09:54:08.597Z,0.70
2019-05-14T09:56:35.942Z,0.67
2019-05-14T09:59:05.109Z,0.83
2019-05-14T10:01:34.318Z,0.80
2019-05-14T10:04:03.543Z,0.83
2019-05-14T10:06:32.753Z,0.70
2019-05-14T10:09:01.949Z,1.00
2019-05-14T10:11:31.127Z,0.67
2019-05-14T10:14:00.339Z,1.05
2019-05-14T10:16:29.625Z,0.67
2019-05-14T10:18:58.821Z,0.60
2019-05-14T10:21:29.322Z,1.13
2019-05-14T10:23:58.415Z,0.60
2019-05-14T10:26:28.714Z,0.70
2019-05-14T10:28:55.698Z,0.90
2019-05-14T10:31:24.936Z,0.80
2019-05-14T10:33:54.127Z,0.53
2019-05-14T10:36:23.474Z,0.60
2019-05-14T10:38:52.619Z,0.70
2019-05-14T10:41:21.862Z,0.63
2019-05-14T10:43:51.080Z,0.50
2019-05-14T10:46:20.268Z,0.60
2019-05-14T10:48:49.569Z,0.50
2019-05-14T10:51:18.793Z,0.57
2019-05-14T10:53:48.911Z,0.80
2019-05-14T10:56:19.253Z,0.60
2019-05-14T10:58:48.881Z,0.50
2019-05-14T11:01:15.738Z,0.60
2019-05-14T11:03:45.034Z,0.93
2019-05-14T11:06:14.245Z,0.80
2019-05-14T11:08:43.476Z,0.40
2019-05-14T11:11:12.755Z,0.50
2019-05-14T11:13:41.953Z,0.77
2019-05-14T11:16:11.169Z,0.60
2019-05-14T11:18:40.526Z,0.53
2019-05-14T11:21:19.748Z,0.70
2019-05-14T11:23:38.846Z,0.60
2019-05-14T11:26:09.171Z,0.67
2019-05-14T11:28:39.558Z,0.70
2019-05-14T11:31:09.069Z,0.70
2019-05-14T11:33:35.707Z,0.50
2019-05-14T11:36:04.957Z,0.50
2019-05-14T11:38:37.551Z,0.40
2019-05-14T11:41:03.357Z,0.43
2019-05-14T11:43:32.611Z,0.70
2019-05-14T11:46:01.816Z,0.67
2019-05-14T11:48:31.023Z,1.13
2019-05-14T11:51:00.209Z,0.90
2019-05-14T11:53:29.430Z,0.40
2019-05-14T11:55:58.818Z,0.67
2019-05-14T11:58:29.518Z,0.50
2019-05-14T12:00:58.476Z,0.40
2019-05-14T12:03:28.579Z,0.90
2019-05-14T12:05:58.441Z,0.87
2019-05-14T12:08:25.062Z,0.70
2019-05-14T12:10:54.265Z,0.73
2019-05-14T12:13:23.566Z,0.70
2019-05-14T12:15:52.810Z,1.30
2019-05-14T12:18:21.991Z,0.70
2019-05-14T12:20:51.227Z,1.20
2019-05-14T12:23:20.398Z,1.07
2019-05-14T12:25:49.648Z,1.07
2019-05-14T12:28:19.228Z,0.97
2019-05-14T12:30:48.957Z,0.60
2019-05-14T12:33:19.728Z,0.80
2019-05-14T12:35:49.244Z,0.60
2019-05-14T12:38:18.549Z,0.80
2019-05-14T12:40:44.986Z,0.60
2019-05-14T12:43:14.291Z,0.43
2019-05-14T12:45:44.021Z,0.90
2019-05-14T12:48:13.246Z,1.83
2019-05-14T12:50:42.411Z,1.60
2019-05-14T12:53:12.910Z,1.13
2019-05-14T12:55:42.129Z,0.83
2019-05-14T12:58:11.289Z,0.70
2019-05-14T13:00:40.581Z,1.10
2019-05-14T13:03:09.793Z,1.10
2019-05-14T13:05:39.017Z,1.00
2019-05-14T13:08:11.401Z,0.80
2019-05-14T13:10:38.545Z,0.80
2019-05-14T13:13:08.412Z,0.50
2019-05-14T13:15:39.080Z,0.63
2019-05-14T13:18:05.355Z,1.20
2019-05-14T13:20:34.790Z,0.47
2019-05-14T13:23:03.997Z,0.80
2019-05-14T13:25:33.173Z,1.00
2019-05-14T13:28:02.402Z,1.00
2019-05-14T13:30:31.565Z,1.30
2019-05-14T13:33:00.792Z,0.67
2019-05-14T13:35:30.057Z,0.63
2019-05-14T13:37:59.319Z,1.00
2019-05-14T13:40:28.688Z,0.63
2019-05-14T13:42:57.865Z,0.80
2019-05-14T13:45:29.692Z,1.47
2019-05-14T13:47:58.921Z,1.00
2019-05-14T13:50:25.561Z,0.63
2019-05-14T13:53:03.011Z,0.70
2019-05-14T13:55:26.589Z,0.73
2019-05-14T13:57:54.567Z,0.57
2019-05-14T14:00:23.780Z,0.87
2019-05-14T14:02:53.007Z,0.70
2019-05-14T14:05:22.317Z,0.60
2019-05-14T14:07:51.499Z,0.77
2019-05-14T14:10:20.813Z,0.80
2019-05-14T14:12:50.034Z,1.27
2019-05-14T14:15:19.339Z,1.60
2019-05-14T14:17:49.578Z,1.40
2019-05-14T14:20:19.506Z,0.67
2019-05-14T14:22:49.085Z,0.73
2019-05-14T14:25:17.812Z,1.40
2019-05-14T14:27:45.362Z,0.50
2019-05-14T14:30:14.555Z,0.57
2019-05-14T14:32:43.758Z,0.87
2019-05-14T14:35:12.981Z,0.80
2019-05-14T14:37:42.214Z,0.90
2019-05-14T14:40:11.464Z,0.87
2019-05-14T14:42:40.806Z,0.67
2019-05-14T14:45:09.849Z,1.07
2019-05-14T14:47:39.724Z,0.90
2019-05-14T14:50:08.533Z,0.90
2019-05-14T14:52:37.493Z,1.03
2019-05-14T14:55:06.691Z,2.30
2019-05-14T14:57:35.956Z,1.43
2019-05-14T15:00:05.184Z,1.10
2019-05-14T15:02:34.470Z,1.23
2019-05-14T15:05:08.892Z,0.90
2019-05-14T15:07:33.657Z,0.50
2019-05-14T15:10:02.981Z,1.03
2019-05-14T15:12:35.671Z,0.53
2019-05-14T15:15:01.442Z,0.87
2019-05-14T15:17:30.713Z,1.30
2019-05-14T15:19:59.908Z,1.00
2019-05-14T15:22:31.035Z,0.70
2019-05-14T15:24:58.668Z,0.97
2019-05-14T15:27:28.258Z,0.93
2019-05-14T15:29:59.164Z,0.73
2019-05-14T15:32:25.998Z,0.50
2019-05-14T15:34:55.240Z,0.93
2019-05-14T15:37:24.477Z,0.87
2019-05-14T15:39:53.661Z,0.70
2019-05-14T15:42:22.923Z,0.53
2019-05-14T15:44:55.901Z,0.70
2019-05-14T15:47:21.426Z,0.73
2019-05-14T15:49:50.722Z,1.40
2019-05-14T15:52:20.149Z,0.53
2019-05-14T15:54:50.673Z,0.90
2019-05-14T15:57:19.325Z,0.40
2019-05-14T15:59:48.949Z,1.00
2019-05-14T16:02:20.087Z,0.80
2019-05-14T16:04:47.325Z,0.37
2019-05-14T16:07:18.580Z,0.60
2019-05-14T16:09:45.846Z,0.73
2019-05-14T16:12:15.018Z,0.90
2019-05-14T16:14:44.201Z,0.87
2019-05-14T16:17:15.663Z,0.50
2019-05-14T16:19:42.669Z,0.70
2019-05-14T16:22:11.894Z,0.50
2019-05-14T16:24:55.980Z,0.60
2019-05-14T16:27:10.486Z,0.70
2019-05-14T16:29:45.420Z,0.93
2019-05-14T16:32:08.948Z,0.80
2019-05-14T16:34:40.756Z,0.50
2019-05-14T16:37:11.042Z,0.93
2019-05-14T16:39:39.029Z,0.50
2019-05-14T16:42:06.433Z,1.03
2019-05-14T16:44:35.673Z,0.93
2019-05-14T16:47:05.338Z,0.70
2019-05-14T16:49:34.596Z,0.77
2019-05-14T16:52:03.769Z,0.87
2019-05-14T16:54:32.954Z,1.20
2019-05-14T16:57:02.137Z,1.10
2019-05-14T16:59:31.393Z,2.03
2019-05-14T17:02:00.593Z,1.87
2019-05-14T17:04:29.815Z,1.40
2019-05-14T17:06:59.140Z,1.73
2019-05-14T17:09:28.413Z,1.40
2019-05-14T17:11:58.975Z,1.67
2019-05-14T17:14:28.974Z,1.60
2019-05-14T17:16:55.954Z,1.53
2019-05-14T17:19:25.157Z,1.43
2019-05-14T17:21:54.481Z,1.47
2019-05-14T17:24:23.662Z,1.60
2019-05-14T17:26:53.644Z,2.57
2019-05-14T17:29:22.823Z,1.70
2019-05-14T17:31:52.086Z,1.50
2019-05-14T17:34:21.276Z,1.50
2019-05-14T17:36:50.455Z,2.17
2019-05-14T17:39:19.688Z,1.53
2019-05-14T17:41:48.950Z,1.40
2019-05-14T17:44:18.261Z,1.13
2019-05-14T17:46:48.909Z,1.50
2019-05-14T17:49:18.952Z,1.97
2019-05-14T17:51:48.340Z,3.10
2019-05-14T17:54:15.155Z,2.00
2019-05-14T17:56:44.389Z,2.87
2019-05-14T17:59:13.604Z,2.67
2019-05-14T18:01:42.870Z,2.53
2019-05-14T18:04:12.188Z,2.90
2019-05-14T18:06:41.388Z,3.10
2019-05-14T18:09:10.577Z,3.50
2019-05-14T18:11:40.226Z,2.50
2019-05-14T18:14:11.974Z,2.87
2019-05-14T18:16:38.306Z,2.60
2019-05-14T18:19:08.804Z,1.93
2019-05-14T18:21:38.938Z,2.37
2019-05-14T18:24:07.031Z,2.60
2019-05-14T18:26:38.471Z,2.13
2019-05-14T18:29:05.473Z,2.07
2019-05-14T18:31:34.762Z,2.40
2019-05-14T18:34:04.061Z,1.93
2019-05-14T18:36:33.262Z,1.40
2019-05-14T18:39:02.507Z,2.43
2019-05-14T18:41:31.754Z,2.27
2019-05-14T18:44:00.950Z,2.23
2019-05-14T18:46:30.143Z,2.60
2019-05-14T18:48:59.467Z,2.63
2019-05-14T18:51:28.926Z,2.27
2019-05-14T18:53:58.725Z,2.30
2019-05-14T18:56:29.382Z,3.13
2019-05-14T18:58:57.984Z,2.70
2019-05-14T19:01:28.918Z,2.93
2019-05-14T19:03:58.834Z,3.43
2019-05-14T19:06:28.191Z,2.83
2019-05-14T19:08:55.026Z,2.67
2019-05-14T19:11:24.281Z,2.00
2019-05-14T19:13:53.557Z,2.57
2019-05-14T19:16:22.847Z,2.30
2019-05-14T19:18:52.152Z,2.23
2019-05-14T19:21:21.360Z,2.10
2019-05-14T19:23:51.803Z,2.47
2019-05-14T19:26:33.427Z,2.67
2019-05-14T19:28:50.346Z,1.93
2019-05-14T19:31:20.759Z,2.30
2019-05-14T19:33:51.008Z,2.50
2019-05-14T19:36:20.312Z,2.33
2019-05-14T19:38:49.988Z,3.07
2019-05-14T19:41:22.547Z,2.27
2019-05-14T19:43:48.435Z,1.73
2019-05-14T19:46:17.647Z,2.70
2019-05-14T19:48:48.358Z,4.40
2019-05-14T19:51:16.062Z,7.30
2019-05-14T19:53:45.301Z,3.17
2019-05-14T19:56:14.516Z,3.57
2019-05-14T19:58:43.737Z,2.67
2019-05-14T20:01:12.926Z,2.37
2019-05-14T20:03:42.151Z,2.90
2019-05-14T20:06:11.387Z,4.03
2019-05-14T20:08:40.615Z,2.87
2019-05-14T20:11:09.843Z,2.07
2019-05-14T20:13:39.331Z,2.67
2019-05-14T20:16:08.672Z,2.43
2019-05-14T20:18:38.502Z,1.90
2019-05-14T20:21:08.682Z,1.60
2019-05-14T20:23:38.677Z,1.93
2019-05-14T20:26:08.135Z,1.77
2019-05-14T20:28:35.486Z,1.50
2019-05-14T20:31:04.748Z,2.30
2019-05-14T20:33:34.066Z,2.27
2019-05-14T20:36:03.351Z,1.80
2019-05-14T20:38:32.562Z,1.67
2019-05-14T20:41:01.779Z,1.33
2019-05-14T20:43:30.968Z,1.80
2019-05-14T20:46:00.210Z,3.00
2019-05-14T20:48:29.729Z,2.40
2019-05-14T20:50:58.972Z,2.43
2019-05-14T20:53:29.103Z,1.97
2019-05-14T20:55:58.823Z,2.53
2019-05-14T20:58:28.412Z,1.80
2019-05-14T21:00:57.608Z,1.80
2019-05-14T21:03:28.932Z,2.37
2019-05-14T21:05:58.345Z,1.97
2019-05-14T21:08:33.324Z,2.10
2019-05-14T21:11:02.547Z,1.40
2019-05-14T21:13:31.866Z,1.40
2019-05-14T21:16:01.072Z,1.20
2019-05-14T21:18:35.008Z,1.33
2019-05-14T21:21:00.334Z,1.43
2019-05-14T21:23:30.041Z,1.23
2019-05-14T21:25:58.829Z,1.07
2019-05-14T21:28:30.039Z,1.27
2019-05-14T21:30:59.183Z,1.33
2019-05-14T21:33:30.045Z,1.33
2019-05-14T21:35:55.684Z,1.40
2019-05-14T21:38:24.878Z,1.10
2019-05-14T21:40:54.085Z,1.40
2019-05-14T21:43:23.298Z,1.17
2019-05-14T21:45:52.519Z,1.03
2019-05-14T21:48:21.785Z,1.30
2019-05-14T21:50:51.057Z,1.30
2019-05-14T21:53:20.258Z,1.13
2019-05-14T21:55:50.211Z,1.40
2019-05-14T21:58:19.782Z,1.20
2019-05-14T22:00:55.586Z,1.20
2019-05-14T22:03:25.545Z,1.80
2019-05-14T22:05:54.766Z,1.23
2019-05-14T22:08:24.057Z,1.20
2019-05-14T22:10:54.118Z,1.10
2019-05-14T22:13:28.279Z,3.27
2019-05-14T22:15:58.777Z,1.60
2019-05-14T22:18:27.772Z,1.50
2019-05-14T22:20:54.848Z,1.47
2019-05-14T22:23:24.073Z,1.60
2019-05-14T22:25:53.281Z,1.30
2019-05-14T22:28:22.497Z,1.83
2019-05-14T22:30:51.786Z,1.63
2019-05-14T22:33:21.013Z,1.50
2019-05-14T22:35:50.229Z,1.57
2019-05-14T22:38:20.381Z,1.50
2019-05-14T22:40:48.754Z,1.60
2019-05-14T22:43:18.343Z,1.20
2019-05-14T22:45:48.126Z,1.30
2019-05-14T22:48:18.469Z,1.30
2019-05-14T22:50:48.388Z,1.30
2019-05-14T22:53:14.906Z,1.50
2019-05-14T22:55:44.121Z,1.10
2019-05-14T22:58:25.301Z,1.33
2019-05-14T23:00:46.881Z,1.60
2019-05-14T23:03:11.782Z,1.20
2019-05-14T23:05:40.982Z,1.40
2019-05-14T23:08:10.201Z,1.33
2019-05-14T23:10:39.390Z,1.53
2019-05-14T23:13:09.443Z,1.60
2019-05-14T23:15:38.531Z,1.70
2019-05-14T23:18:08.561Z,1.37
2019-05-14T23:20:39.010Z,1.60
2019-05-14T23:23:05.546Z,1.10
2019-05-14T23:25:34.750Z,1.70
2019-05-14T23:28:04.005Z,1.77
2019-05-14T23:30:33.179Z,1.30
2019-05-14T23:33:02.443Z,1.20
2019-05-14T23:35:31.654Z,1.73
2019-05-14T23:38:00.851Z,1.90
2019-05-14T23:40:30.050Z,1.33
2019-05-14T23:42:59.287Z,1.13
2019-05-14T23:45:28.618Z,1.43
2019-05-14T23:47:58.542Z,1.20
2019-05-14T23:50:28.349Z,1.43
2019-05-14T23:52:56.231Z,1.17
2019-05-14T23:55:25.418Z,1.17
2019-05-14T23:57:54.590Z,1.47
